Time;durP1;ratioP1;P1;durP2;ratioP2;P2;SDS_P1;SDS_P2;PMS_P1;PMS_P2;Temp;Humidity;BMP_temperature;BMP_pressure;BME280_temperature;BME280_humidity;BME280_pressure;Samples;Min_cycle;Max_cycle;Signal;HPM_P1;HPM_P2
2022/11/10 00:00:16;;;;;;;8.50;3.35;;;;;;;9.26;100.00;101398.72;5006133;28;20037;-78
2022/11/10 00:03:06;;;;;;;10.70;3.58;;;;;;;9.23;100.00;101401.28;5005019;28;20052;-78
2022/11/10 00:05:54;;;;;;;15.18;4.28;;;;;;;9.18;100.00;101406.44;5018587;28;20048;-78
2022/11/10 00:08:41;;;;;;;11.00;3.53;;;;;;;9.13;100.00;101404.59;5011156;28;20037;-77
2022/11/10 00:11:28;;;;;;;13.30;3.70;;;;;;;9.08;100.00;101412.41;5030548;28;20037;-77
2022/11/10 00:17:21;;;;;;;10.18;3.35;;;;;;;8.96;100.00;101410.44;5010955;28;20050;-78
2022/11/10 00:20:09;;;;;;;8.90;2.53;;;;;;;8.91;100.00;101403.34;5029089;28;20040;-78
2022/11/10 00:22:56;;;;;;;13.93;3.63;;;;;;;8.85;100.00;101406.72;5030562;28;20045;-77
2022/11/10 00:25:42;;;;;;;10.50;2.72;;;;;;;8.81;100.00;101399.66;5017962;28;20045;-78
2022/11/10 00:28:30;;;;;;;10.32;2.20;;;;;;;8.76;100.00;101409.19;4995195;28;20399;-78
2022/11/10 00:31:17;;;;;;;11.75;2.97;;;;;;;8.74;100.00;101418.78;5030614;28;20037;-78
2022/11/10 00:34:05;;;;;;;5.07;2.30;;;;;;;8.70;100.00;101417.81;5028404;28;20406;-78
2022/11/10 00:36:52;;;;;;;11.40;2.38;;;;;;;8.68;100.00;101421.28;5037740;28;20044;-78
2022/11/10 00:39:39;;;;;;;8.20;2.38;;;;;;;8.65;100.00;101434.34;5047412;28;20041;-78
2022/11/10 00:42:26;;;;;;;18.15;2.80;;;;;;;8.62;100.00;101435.19;5018809;28;20239;-77
2022/11/10 00:45:13;;;;;;;13.05;2.42;;;;;;;8.60;100.00;101431.66;5002979;28;20264;-78
2022/11/10 00:48:00;;;;;;;11.57;2.60;;;;;;;8.60;100.00;101434.28;5031318;28;20052;-78
2022/11/10 00:50:47;;;;;;;11.60;2.40;;;;;;;8.59;100.00;101443.88;5029034;28;20037;-78
2022/11/10 00:53:34;;;;;;;11.70;2.90;;;;;;;8.62;100.00;101434.28;5042956;28;20034;-78
2022/11/10 00:56:23;;;;;;;13.73;3.13;;;;;;;8.65;100.00;101431.72;5027337;28;20034;-77
2022/11/10 00:59:10;;;;;;;19.95;3.25;;;;;;;8.66;100.00;101452.78;5021925;28;20033;-78
2022/11/10 01:01:57;;;;;;;12.82;2.65;;;;;;;8.68;100.00;101445.81;5002447;28;20041;-78
2022/11/10 01:04:43;;;;;;;13.90;2.70;;;;;;;8.68;100.00;101447.56;5022350;28;20052;-78
2022/11/10 01:07:31;;;;;;;14.18;3.08;;;;;;;8.68;100.00;101447.56;5027373;28;20049;-78
2022/11/10 01:10:18;;;;;;;15.32;4.15;;;;;;;8.69;100.00;101455.44;5036507;28;20146;-78
2022/11/10 01:13:05;;;;;;;38.03;3.40;;;;;;;8.70;100.00;101461.63;5010656;28;20058;-78
2022/11/10 01:15:52;;;;;;;14.65;3.28;;;;;;;8.69;100.00;101473.84;5001092;28;20054;-78
2022/11/10 01:18:40;;;;;;;11.75;3.70;;;;;;;8.69;100.00;101480.84;5025180;28;20037;-78
2022/11/10 01:21:29;;;;;;;12.65;2.65;;;;;;;8.69;100.00;101491.34;5023195;28;20052;-78
2022/11/10 01:24:20;;;;;;;14.82;3.60;;;;;;;8.70;100.00;101496.66;5013528;28;20072;-78
2022/11/10 01:27:07;;;;;;;12.30;3.95;;;;;;;8.71;100.00;101487.91;5018561;28;20041;-78
2022/11/10 01:29:54;;;;;;;11.75;4.13;;;;;;;8.71;100.00;101490.53;5026075;28;20052;-79
2022/11/10 01:32:41;;;;;;;17.15;4.13;;;;;;;8.70;100.00;101490.53;4998329;28;20041;-77
2022/11/10 01:35:28;;;;;;;11.23;3.10;;;;;;;8.69;100.00;101486.97;5005474;28;20388;-76
2022/11/10 01:38:16;;;;;;;15.25;3.40;;;;;;;8.68;100.00;101492.22;5006501;28;20058;-77
2022/11/10 01:41:04;;;;;;;27.50;4.05;;;;;;;8.67;100.00;101490.44;5021884;28;20038;-77
2022/11/10 01:43:51;;;;;;;14.80;3.40;;;;;;;8.63;100.00;101485.97;5015281;28;20049;-77
2022/11/10 01:46:38;;;;;;;14.20;3.28;;;;;;;8.62;100.00;101484.19;5022706;28;20045;-77
2022/11/10 01:49:27;;;;;;;15.27;3.55;;;;;;;8.62;100.00;101492.06;5013901;28;20518;-77
2022/11/10 01:52:14;;;;;;;14.20;3.60;;;;;;;8.57;100.00;101498.13;5025589;28;20698;-77
2022/11/10 01:55:01;;;;;;;16.35;3.70;;;;;;;8.57;100.00;101502.50;5039264;28;20041;-77
2022/11/10 01:57:49;;;;;;;21.80;4.13;;;;;;;8.57;100.00;101498.13;5006866;28;20046;-77
2022/11/10 02:00:36;;;;;;;17.20;3.55;;;;;;;8.58;100.00;101504.25;5025600;28;20514;-77
2022/11/10 02:03:38;;;;;;;18.92;4.20;;;;;;;8.58;100.00;101501.63;4992500;28;20045;-76
2022/11/10 02:06:37;;;;;;;20.00;4.75;;;;;;;8.57;100.00;101494.63;5022283;28;20399;-77
2022/11/10 02:09:25;;;;;;;15.30;4.00;;;;;;;8.59;100.00;101500.78;5009476;28;20038;-77
2022/11/10 02:12:13;;;;;;;17.42;4.60;;;;;;;8.57;100.00;101499.88;5020139;28;20042;-77
2022/11/10 02:15:00;;;;;;;15.98;4.32;;;;;;;8.56;100.00;101501.63;5023632;28;20052;-79
2022/11/10 02:17:47;;;;;;;19.88;4.40;;;;;;;8.56;100.00;101500.72;5023887;28;20053;-79
2022/11/10 02:20:34;;;;;;;16.67;5.15;;;;;;;8.56;100.00;101511.22;5023322;28;20045;-76
2022/11/10 02:23:34;;;;;;;15.63;4.20;;;;;;;8.56;100.00;101517.38;5018671;28;20042;-78
2022/11/10 02:26:24;;;;;;;15.05;4.32;;;;;;;8.56;100.00;101522.63;5015562;28;20037;-78
2022/11/10 02:29:11;;;;;;;15.50;4.90;;;;;;;8.57;100.00;101534.91;5022654;28;20170;-78
2022/11/10 02:31:58;;;;;;;21.02;4.80;;;;;;;8.59;100.00;101532.31;5013093;28;20057;-78
2022/11/10 02:34:45;;;;;;;31.90;5.00;;;;;;;8.57;100.00;101537.53;4987504;28;20052;-78
2022/11/10 02:37:32;;;;;;;16.33;5.60;;;;;;;8.59;100.00;101537.56;5027551;28;20049;-78
2022/11/10 02:40:19;;;;;;;21.17;5.25;;;;;;;8.58;100.00;101533.16;5016559;28;20349;-78
2022/11/10 02:43:10;;;;;;;17.00;5.15;;;;;;;8.57;100.00;101531.41;5012201;28;20054;-78
2022/11/10 02:45:57;;;;;;;20.13;5.65;;;;;;;8.57;100.00;101545.41;5024731;28;20038;-78
2022/11/10 02:48:44;;;;;;;12.90;5.20;;;;;;;8.57;100.00;101548.03;5021488;28;20058;-78
2022/11/10 02:51:31;;;;;;;25.30;5.88;;;;;;;8.57;100.00;101541.91;5016090;28;20379;-77
2022/11/10 02:54:18;;;;;;;22.38;6.20;;;;;;;8.56;100.00;101554.16;5025866;28;20041;-77
2022/11/10 02:57:05;;;;;;;17.83;5.93;;;;;;;8.54;100.00;101558.50;5012316;28;20041;-78
2022/11/10 02:59:52;;;;;;;24.92;6.30;;;;;;;8.55;100.00;101560.25;5030383;28;20371;-77
2022/11/10 03:02:40;;;;;;;17.70;6.03;;;;;;;8.56;100.00;101575.19;5018812;28;20037;-78
2022/11/10 03:05:31;;;;;;;22.92;6.80;;;;;;;8.54;100.00;101576.88;4993206;28;20053;-78
2022/11/10 03:08:18;;;;;;;17.52;6.07;;;;;;;8.55;100.00;101572.50;5028186;28;20278;-78
2022/11/10 03:11:05;;;;;;;22.77;7.05;;;;;;;8.56;100.00;101571.63;5012712;28;20605;-78
2022/11/10 03:13:52;;;;;;;24.85;5.45;;;;;;;8.55;100.00;101569.88;5037746;28;20061;-78
2022/11/10 03:16:48;;;;;;;20.45;6.43;;;;;;;8.54;100.00;101582.13;5026193;28;20042;-78
2022/11/10 03:19:34;;;;;;;25.17;6.50;;;;;;;8.54;100.00;101582.13;5016578;28;20521;-77
2022/11/10 03:22:21;;;;;;;21.55;5.45;;;;;;;8.52;100.00;101594.31;4999809;28;20262;-78
2022/11/10 03:25:09;;;;;;;24.40;5.63;;;;;;;8.52;100.00;101590.81;5025772;28;20161;-78
2022/11/10 03:27:56;;;;;;;17.27;5.40;;;;;;;8.54;100.00;101597.00;5018553;28;20057;-78
2022/11/10 03:30:43;;;;;;;19.20;6.80;;;;;;;8.53;100.00;101597.84;5000356;28;20045;-78
2022/11/10 03:33:30;;;;;;;23.95;5.88;;;;;;;8.52;100.00;101594.31;5024879;28;20049;-78
2022/11/10 03:36:17;;;;;;;32.55;5.88;;;;;;;8.51;100.00;101600.44;4998834;28;20246;-77
2022/11/10 03:39:04;;;;;;;21.77;6.03;;;;;;;8.50;100.00;101603.91;5016018;28;20046;-78
2022/11/10 03:41:51;;;;;;;25.38;6.32;;;;;;;8.50;100.00;101606.53;5009184;28;20049;-78
2022/11/10 03:44:38;;;;;;;24.20;5.95;;;;;;;8.50;100.00;101603.03;5024988;28;20402;-78
2022/11/10 03:47:25;;;;;;;17.17;6.05;;;;;;;8.49;100.00;101609.16;5028729;28;20037;-78
2022/11/10 03:50:14;;;;;;;17.92;6.72;;;;;;;8.50;100.00;101616.16;5010608;28;20049;-78
2022/11/10 03:53:01;;;;;;;21.05;5.82;;;;;;;8.50;100.00;101624.03;4988840;28;20044;-78
2022/11/10 03:55:51;;;;;;;22.17;5.88;;;;;;;8.48;100.00;101628.38;5027377;28;20041;-78
2022/11/10 03:58:39;;;;;;;22.25;6.57;;;;;;;8.48;100.00;101626.63;5021312;28;20040;-78
2022/11/10 04:01:26;;;;;;;13.75;5.22;;;;;;;8.49;100.00;101632.78;5029714;28;20064;-78
2022/11/10 04:10:24;;;;;;;38.85;6.55;;;;;;;8.47;100.00;101640.63;5018188;28;20044;-77
2022/11/10 04:16:16;;;;;;;25.02;5.60;;;;;;;8.48;100.00;101658.16;5017390;28;20041;-77
2022/11/10 04:19:03;;;;;;;21.20;6.38;;;;;;;8.49;100.00;101662.56;5011465;28;20061;-78
2022/11/10 04:21:50;;;;;;;26.13;6.57;;;;;;;8.50;100.00;101673.94;5014038;28;20042;-78
2022/11/10 04:24:37;;;;;;;25.35;6.97;;;;;;;8.51;100.00;101676.63;5013975;28;20049;-77
2022/11/10 04:27:24;;;;;;;23.65;5.88;;;;;;;8.54;100.00;101675.81;5009058;28;20260;-77
2022/11/10 04:30:11;;;;;;;25.63;5.63;;;;;;;8.53;100.00;101689.81;5016997;28;20049;-78
2022/11/10 04:32:58;;;;;;;30.15;6.57;;;;;;;8.56;100.00;101690.78;5010863;28;20038;-78
2022/11/10 04:35:45;;;;;;;23.88;6.18;;;;;;;8.54;100.00;101691.56;5004133;28;20050;-78
2022/11/10 04:38:32;;;;;;;20.73;5.57;;;;;;;8.53;100.00;101690.69;5005949;28;20049;-78
2022/11/10 04:41:20;;;;;;;22.73;5.40;;;;;;;8.52;100.00;101685.38;5015457;28;20065;-78
2022/11/10 04:44:07;;;;;;;29.63;7.60;;;;;;;8.50;100.00;101692.34;5022704;28;20417;-78
2022/11/10 04:46:55;;;;;;;20.27;6.18;;;;;;;8.50;100.00;101680.09;5002340;28;20049;-78
2022/11/10 04:49:42;;;;;;;23.08;6.03;;;;;;;8.48;100.00;101679.16;5019099;28;20054;-77
2022/11/10 04:52:28;;;;;;;16.48;5.80;;;;;;;8.50;100.00;101684.47;5027588;28;20408;-77
2022/11/10 04:55:15;;;;;;;23.10;6.25;;;;;;;8.51;100.00;101679.25;4991105;28;20124;-77
2022/11/10 04:58:03;;;;;;;20.45;6.35;;;;;;;8.54;100.00;101687.22;5011869;28;20050;-78
2022/11/10 05:00:50;;;;;;;24.85;7.20;;;;;;;8.56;100.00;101680.25;5011531;28;20045;-78
2022/11/10 05:03:37;;;;;;;27.42;7.30;;;;;;;8.61;100.00;101672.47;5021187;28;20041;-77
2022/11/10 05:06:24;;;;;;;23.02;6.75;;;;;;;8.63;100.00;101668.16;5013964;28;20063;-77
2022/11/10 05:09:11;;;;;;;26.60;7.82;;;;;;;8.66;100.00;101669.94;4991016;28;20041;-79
2022/11/10 05:11:58;;;;;;;29.15;8.07;;;;;;;8.68;100.00;101678.78;5027220;28;20040;-77
2022/11/10 05:14:47;;;;;;;21.25;7.57;;;;;;;8.68;100.00;101677.03;5021861;28;20049;-79
2022/11/10 05:17:34;;;;;;;23.10;7.10;;;;;;;8.70;100.00;101675.34;5026710;28;20053;-76
2022/11/10 05:20:23;;;;;;;26.55;7.95;;;;;;;8.72;100.00;101680.63;5036345;28;20439;-78
2022/11/10 05:26:17;;;;;;;28.45;7.75;;;;;;;8.74;100.00;101689.44;4996443;28;20262;-78
2022/11/10 05:29:04;;;;;;;21.33;6.90;;;;;;;8.75;100.00;101693.81;5014487;28;20044;-77
2022/11/10 05:31:51;;;;;;;28.85;8.43;;;;;;;8.77;100.00;101700.00;5025641;28;20502;-77
2022/11/10 05:34:38;;;;;;;27.80;8.32;;;;;;;8.77;100.00;101700.00;5010424;28;20061;-77
2022/11/10 05:37:25;;;;;;;29.60;7.43;;;;;;;8.77;100.00;101703.53;5008427;28;20033;-77
2022/11/10 05:40:12;;;;;;;27.50;7.43;;;;;;;8.77;100.00;101703.53;4987352;28;20049;-77
2022/11/10 05:42:59;;;;;;;31.48;7.93;;;;;;;8.78;100.00;101707.94;5009239;28;20045;-77
2022/11/10 05:45:46;;;;;;;18.73;6.60;;;;;;;8.80;100.00;101709.72;5021022;28;20045;-76
2022/11/10 05:48:33;;;;;;;26.00;7.88;;;;;;;8.81;100.00;101716.72;5012540;28;20049;-76
2022/11/10 05:51:20;;;;;;;32.10;7.10;;;;;;;8.82;100.00;101729.03;5003652;28;20249;-76
2022/11/10 05:54:07;;;;;;;23.65;7.00;;;;;;;8.81;100.00;101717.66;5016612;28;20241;-79
2022/11/10 05:56:55;;;;;;;23.65;7.25;;;;;;;8.82;100.00;101726.41;4991478;28;20041;-77
2022/11/10 05:59:42;;;;;;;25.38;7.82;;;;;;;8.83;100.00;101721.19;5007619;28;20045;-77
2022/11/10 06:02:29;;;;;;;20.02;6.25;;;;;;;8.83;100.00;101726.47;5031239;28;20037;-77
2022/11/10 06:05:16;;;;;;;47.85;7.93;;;;;;;8.84;100.00;101724.72;4988331;28;20038;-77
2022/11/10 06:08:05;;;;;;;29.20;6.45;;;;;;;8.84;100.00;101728.22;5005911;28;20046;-77
2022/11/10 06:10:53;;;;;;;27.33;6.25;;;;;;;8.85;100.00;101735.25;4985472;28;20073;-78
2022/11/10 06:13:40;;;;;;;19.63;5.80;;;;;;;8.86;100.00;101746.66;5017004;28;20046;-77
2022/11/10 06:16:27;;;;;;;34.22;6.50;;;;;;;8.86;100.00;101751.91;5017164;28;20053;-80
2022/11/10 06:19:15;;;;;;;21.58;5.53;;;;;;;8.85;100.00;101750.16;5014324;28;20157;-79
2022/11/10 06:22:02;;;;;;;21.00;6.00;;;;;;;8.84;100.00;101758.88;5031050;28;20502;-80
2022/11/10 06:24:53;;;;;;;29.33;6.57;;;;;;;8.82;100.00;101761.47;5005321;28;20038;-80
2022/11/10 06:27:43;;;;;;;28.42;5.78;;;;;;;8.82;100.00;101761.47;5011668;28;20050;-79
2022/11/10 06:30:32;;;;;;;30.20;6.00;;;;;;;8.82;100.00;101768.47;5022263;28;20052;-80
2022/11/10 06:33:19;;;;;;;22.42;5.43;;;;;;;8.82;100.00;101765.84;5024036;28;20038;-79
2022/11/10 06:36:08;;;;;;;13.05;5.25;;;;;;;8.81;100.00;101785.97;5002886;28;20570;-80
2022/11/10 06:38:56;;;;;;;27.08;6.10;;;;;;;8.82;100.00;101786.88;5013133;28;20033;-79
2022/11/10 06:41:43;;;;;;;19.55;4.78;;;;;;;8.82;100.00;101789.50;4991039;28;20076;-80
2022/11/10 06:44:30;;;;;;;27.73;6.30;;;;;;;8.81;100.00;101795.59;5007049;28;20195;-81
2022/11/10 06:47:18;;;;;;;27.27;5.68;;;;;;;8.81;100.00;101799.13;5015314;28;20502;-80
2022/11/10 06:50:05;;;;;;;25.13;6.00;;;;;;;8.82;100.00;101808.78;5020157;28;20053;-81
2022/11/10 06:52:56;;;;;;;18.10;5.23;;;;;;;8.82;100.00;101808.78;5023204;28;20053;-81
2022/11/10 06:55:43;;;;;;;25.83;5.40;;;;;;;8.85;100.00;101815.88;5024952;28;20030;-81
2022/11/10 06:58:30;;;;;;;26.85;5.50;;;;;;;8.86;100.00;101826.41;4999395;28;20214;-81
2022/11/10 07:01:25;;;;;;;29.87;6.13;;;;;;;8.88;100.00;101837.84;5021837;28;20050;-81
2022/11/10 07:04:14;;;;;;;25.65;5.18;;;;;;;8.91;100.00;101851.06;5015681;28;20037;-82
2022/11/10 07:07:06;;;;;;;28.48;5.63;;;;;;;8.95;100.00;101857.28;5031267;28;20494;-80
2022/11/10 07:09:54;;;;;;;25.88;5.55;;;;;;;8.98;100.00;101871.41;5006642;28;20668;-81
2022/11/10 07:12:41;;;;;;;17.20;4.68;;;;;;;9.02;100.00;101869.75;5000540;28;20076;-81
2022/11/10 07:15:29;;;;;;;24.58;5.55;;;;;;;9.06;100.00;101868.97;5007289;28;20045;-81
2022/11/10 07:18:16;;;;;;;28.80;5.22;;;;;;;9.10;100.00;101870.84;5027196;28;20048;-81
2022/11/10 07:21:04;;;;;;;26.52;5.03;;;;;;;9.13;100.00;101857.78;5013084;28;20048;-81
2022/11/10 07:23:51;;;;;;;24.77;4.78;;;;;;;9.18;100.00;101849.97;5017049;28;20609;-81
2022/11/10 07:26:38;;;;;;;33.05;5.03;;;;;;;9.22;100.00;101857.09;5016342;28;20071;-81
2022/11/10 07:29:25;;;;;;;26.13;6.55;;;;;;;9.24;100.00;101851.88;5007076;28;20045;-81
2022/11/10 07:32:12;;;;;;;25.35;5.50;;;;;;;9.27;100.00;101852.84;5011402;28;20042;-81
2022/11/10 07:35:02;;;;;;;23.10;5.65;;;;;;;9.30;100.00;101859.91;5019384;28;20040;-81
2022/11/10 07:37:50;;;;;;;24.33;5.72;;;;;;;9.31;100.00;101852.06;5017497;28;20053;-81
2022/11/10 07:40:38;;;;;;;37.15;7.03;;;;;;;9.34;100.00;101856.53;5016855;28;20154;-81
2022/11/10 07:43:26;;;;;;;20.67;4.63;;;;;;;9.38;100.00;101866.28;5024559;28;20100;-82
2022/11/10 07:46:13;;;;;;;35.22;6.50;;;;;;;9.41;100.00;101868.97;4976080;28;20026;-81
2022/11/10 07:49:00;;;;;;;25.33;4.93;;;;;;;9.43;100.00;101863.75;5018664;28;20052;-81
2022/11/10 07:51:47;;;;;;;31.13;5.78;;;;;;;9.47;100.00;101863.88;5006855;28;20050;-81
2022/11/10 07:54:35;;;;;;;19.02;5.53;;;;;;;9.48;100.00;101873.53;5008449;28;20052;-81
2022/11/10 07:57:22;;;;;;;26.75;4.93;;;;;;;9.51;100.00;101870.97;4986696;28;20053;-80
2022/11/10 08:00:11;;;;;;;30.42;6.03;;;;;;;9.54;100.00;101886.81;5000050;28;20034;-80
2022/11/10 08:03:08;;;;;;;28.40;5.95;;;;;;;9.56;100.00;101890.41;5020012;28;20041;-80
2022/11/10 08:06:02;;;;;;;20.23;6.05;;;;;;;9.57;100.00;101902.69;5021322;28;20049;-80
2022/11/10 08:08:51;;;;;;;21.00;5.93;;;;;;;9.59;100.00;101891.31;5014218;28;20672;-81
2022/11/10 08:11:39;;;;;;;25.45;5.30;;;;;;;9.60;100.00;101893.09;5018859;28;20061;-82
2022/11/10 08:14:26;;;;;;;18.52;4.72;;;;;;;9.60;100.00;101891.34;5012722;28;20396;-81
2022/11/10 08:17:13;;;;;;;24.60;5.35;;;;;;;9.62;100.00;101894.00;4996131;28;20044;-80
2022/11/10 08:20:00;;;;;;;20.38;5.40;;;;;;;9.64;100.00;101895.84;5020034;28;20053;-81
2022/11/10 08:22:47;;;;;;;23.60;5.93;;;;;;;9.63;100.00;101908.97;5020700;28;20041;-81
2022/11/10 08:25:35;;;;;;;20.50;5.57;;;;;;;9.62;100.00;101909.81;5019062;28;20058;-81
2022/11/10 08:28:25;;;;;;;17.15;5.78;;;;;;;9.61;100.00;101913.31;5006949;28;20499;-81
2022/11/10 08:31:11;;;;;;;29.77;6.25;;;;;;;9.59;100.00;101915.88;5025220;28;20519;-81
2022/11/10 08:33:59;;;;;;;19.52;6.05;;;;;;;9.59;100.00;101910.63;5009892;28;20057;-81
2022/11/10 08:36:47;;;;;;;23.02;6.13;;;;;;;9.61;100.00;101908.91;5017074;28;20064;-80
2022/11/10 08:39:34;;;;;;;24.88;5.90;;;;;;;9.66;100.00;101928.34;5000960;28;20038;-81
2022/11/10 08:42:25;;;;;;;20.92;5.55;;;;;;;9.72;100.00;101924.97;5023160;28;20058;-80
2022/11/10 08:45:14;;;;;;;24.38;5.97;;;;;;;9.79;100.00;101931.25;5016723;28;20045;-79
2022/11/10 08:48:08;;;;;;;26.15;5.28;;;;;;;9.88;100.00;101928.84;5000701;28;20053;-81
2022/11/10 08:50:58;;;;;;;31.75;5.75;;;;;;;9.94;100.00;101936.88;5014046;28;20069;-79
2022/11/10 08:53:47;;;;;;;25.88;5.97;;;;;;;9.97;100.00;101931.69;5011580;28;20049;-79
2022/11/10 08:56:37;;;;;;;23.42;6.00;;;;;;;9.99;100.00;101951.06;4995853;28;24604;-79
2022/11/10 08:59:25;;;;;;;22.42;5.65;;;;;;;10.03;100.00;101950.25;5012679;28;20050;-80
2022/11/10 09:02:13;;;;;;;29.13;6.97;;;;;;;10.06;100.00;101960.00;5026853;28;20075;-81
2022/11/10 09:05:00;;;;;;;30.02;5.93;;;;;;;10.07;100.00;101967.03;5021395;28;20030;-80
2022/11/10 09:07:48;;;;;;;26.90;6.20;;;;;;;10.13;100.00;101961.91;5010030;28;20166;-80
2022/11/10 09:10:38;;;;;;;27.05;6.32;;;;;;;10.18;100.00;101972.56;5020031;28;20270;-80
2022/11/10 09:13:26;;;;;;;27.13;6.55;;;;;;;10.26;100.00;101968.34;5018294;28;20034;-80
2022/11/10 09:16:16;;;;;;;18.48;5.30;;;;;;;10.33;100.00;101965.91;5023095;28;20502;-80
2022/11/10 09:19:04;;;;;;;21.67;6.32;;;;;;;10.43;100.00;101967.00;4989113;28;20041;-80
2022/11/10 09:21:50;;;;;;;19.17;5.07;;;;;;;10.51;100.00;101965.44;5017228;28;20281;-80
2022/11/10 09:24:37;;;;;;;22.17;5.72;;;;;;;10.57;100.00;101976.94;5020454;28;20042;-80
2022/11/10 09:27:24;;;;;;;26.65;5.80;;;;;;;10.63;100.00;101971.81;4992281;28;20046;-80
2022/11/10 09:30:13;;;;;;;21.08;5.65;;;;;;;10.72;100.00;101969.38;5026110;28;20593;-80
2022/11/10 09:33:04;;;;;;;21.17;5.50;;;;;;;10.84;100.00;101976.63;5007876;28;20174;-81
2022/11/10 09:35:56;;;;;;;14.05;5.70;;;;;;;10.92;100.00;101972.41;5024134;28;20037;-82
2022/11/10 09:38:42;;;;;;;19.60;4.68;;;;;;;11.03;100.00;101977.88;5015064;28;20511;-81
2022/11/10 09:41:31;;;;;;;24.45;5.45;;;;;;;11.11;100.00;101986.81;5017996;28;20411;-81
2022/11/10 09:44:35;;;;;;;30.50;5.03;;;;;;;11.10;100.00;101985.06;5014359;28;20042;-79
2022/11/10 09:47:27;;;;;;;21.27;5.45;;;;;;;11.11;100.00;101984.19;5015529;28;20038;-82
2022/11/10 09:50:46;;;;;;;17.40;5.10;;;;;;;11.12;100.00;101988.63;5027686;28;20048;-81
2022/11/10 09:53:42;;;;;;;19.80;6.15;;;;;;;11.11;100.00;101992.09;5022476;28;20050;-81
2022/11/10 09:56:36;;;;;;;21.58;4.90;;;;;;;11.19;100.00;101989.59;5013178;28;20518;-81
2022/11/10 09:59:28;;;;;;;17.63;5.47;;;;;;;11.24;100.00;101994.13;5025874;28;20041;-81
2022/11/10 10:02:24;;;;;;;16.45;4.15;;;;;;;11.33;100.00;101982.84;5024318;28;20062;-81
2022/11/10 10:05:50;;;;;;;22.25;5.10;;;;;;;11.40;100.00;101997.03;4998964;28;20037;-82
2022/11/10 10:08:56;;;;;;;21.27;4.38;;;;;;;11.42;100.00;102004.13;5012703;28;20054;-82
2022/11/10 10:12:22;;;;;;;23.33;4.40;;;;;;;11.52;100.00;102002.53;5023418;28;20041;-82
2022/11/10 10:15:20;;;;;;;14.85;4.75;;;;;;;11.62;100.00;102020.31;5027933;28;20254;-81
2022/11/10 10:18:36;;;;;;;19.17;5.35;;;;;;;11.63;100.00;102026.50;5021397;28;20057;-81
2022/11/10 10:21:38;;;;;;;19.48;6.25;;;;;;;11.61;100.00;102044.94;5013424;28;20034;-82
2022/11/10 10:24:29;;;;;;;20.85;6.03;;;;;;;11.63;100.00;102043.22;5032099;28;20044;-81
2022/11/10 10:27:21;;;;;;;20.63;5.80;;;;;;;11.62;100.00;102051.13;5033605;28;20040;-82
2022/11/10 10:30:18;;;;;;;22.42;6.50;;;;;;;11.70;100.00;102052.13;5022781;28;20037;-82
2022/11/10 10:33:19;;;;;;;24.73;7.80;;;;;;;11.74;100.00;102061.00;5015156;28;20150;-82
2022/11/10 10:36:17;;;;;;;21.02;6.53;;;;;;;11.80;100.00;102056.72;4997806;28;20042;-81
2022/11/10 10:39:13;;;;;;;28.02;6.40;;;;;;;11.84;100.00;102053.28;5016459;28;20282;-81
2022/11/10 10:42:00;;;;;;;20.25;6.65;;;;;;;11.90;100.00;102058.69;5016685;28;20049;-81
2022/11/10 10:45:25;;;;;;;19.77;6.47;;;;;;;11.93;100.00;102051.66;5010309;28;20064;-80
2022/11/10 10:48:27;;;;;;;19.65;6.13;;;;;;;11.94;100.00;102056.97;5019229;28;20715;-81
2022/11/10 10:51:29;;;;;;;25.23;5.68;;;;;;;11.99;100.00;102057.97;5027533;28;20052;-80
2022/11/10 10:54:28;;;;;;;19.13;5.22;;;;;;;12.10;100.00;102063.44;5030511;28;20391;-80
2022/11/10 10:57:18;;;;;;;16.00;5.35;;;;;;;12.13;100.00;102044.09;5031399;28;20041;-80
2022/11/10 11:00:40;;;;;;;13.40;5.18;;;;;;;12.18;100.00;102037.13;5019503;28;20041;-80
2022/11/10 11:03:33;;;;;;;20.17;3.95;;;;;;;12.17;100.00;102046.78;5031119;28;20411;-81
2022/11/10 11:06:26;;;;;;;20.92;5.85;;;;;;;12.17;100.00;102051.19;5002311;28;20049;-81
2022/11/10 11:09:25;;;;;;;18.42;4.60;;;;;;;12.22;100.00;102068.91;5016161;28;20621;-81
2022/11/10 11:12:25;;;;;;;14.75;3.72;;;;;;;12.25;100.00;102055.75;5023537;28;20046;-81
2022/11/10 11:15:19;;;;;;;15.70;4.93;;;;;;;12.31;100.00;102056.72;5013136;28;20056;-81
2022/11/10 11:18:19;;;;;;;21.50;3.95;;;;;;;12.32;100.00;102069.94;5018519;28;20137;-82
2022/11/10 11:21:28;;;;;;;27.52;4.95;;;;;;;12.35;100.00;102071.75;4991041;28;20533;-82
2022/11/10 11:24:27;;;;;;;18.55;4.03;;;;;;;12.39;100.00;102084.13;5029608;28;20037;-81
2022/11/10 11:27:41;;;;;;;17.67;4.32;;;;;;;12.45;100.00;102086.88;5033834;28;20045;-81
2022/11/10 11:30:37;;;;;;;14.80;4.95;;;;;;;12.48;100.00;102085.16;5021064;28;20419;-81
2022/11/10 11:33:34;;;;;;;16.23;4.00;;;;;;;12.57;100.00;102089.72;5006530;28;20053;-81
2022/11/10 11:37:26;;;;;;;20.73;4.82;;;;;;;12.65;100.00;102097.75;5001861;28;20616;-81
2022/11/10 11:40:31;;;;;;;19.35;4.03;;;;;;;12.63;100.00;102095.09;4990769;28;20057;-81
2022/11/10 11:43:43;;;;;;;25.10;5.30;;;;;;;12.62;100.00;102103.00;5012650;28;20495;-81
2022/11/10 11:46:30;;;;;;;23.48;5.78;;;;;;;12.60;100.00;102104.72;5025354;28;20050;-81
2022/11/10 11:49:39;;;;;;;19.52;4.88;;;;;;;12.59;100.00;102110.88;5026410;28;20045;-81
2022/11/10 11:52:41;;;;;;;19.63;5.80;;;;;;;12.59;100.00;102122.34;4996463;28;20045;-81
2022/11/10 11:55:46;;;;;;;21.10;5.32;;;;;;;12.60;100.00;102116.19;5029002;28;20530;-82
2022/11/10 11:59:11;;;;;;;19.17;4.28;;;;;;;12.62;100.00;102113.56;5016869;28;20053;-82
2022/11/10 12:02:29;;;;;;;15.38;4.68;;;;;;;12.63;100.00;102110.06;5017690;28;20270;-82
2022/11/10 12:05:56;;;;;;;19.48;4.80;;;;;;;12.65;100.00;102110.97;5026717;28;20053;-80
2022/11/10 12:09:18;;;;;;;15.55;4.50;;;;;;;12.65;100.00;102116.28;5001015;28;20056;-82
2022/11/10 12:12:26;;;;;;;20.50;5.32;;;;;;;12.64;100.00;102111.84;5015785;28;20281;-81
2022/11/10 12:15:35;;;;;;;20.92;4.50;;;;;;;12.62;100.00;102122.38;5033577;28;20045;-80
2022/11/10 12:18:40;;;;;;;19.60;5.07;;;;;;;12.63;100.00;102136.50;5030350;28;20048;-80
2022/11/10 12:22:12;;;;;;;18.15;4.70;;;;;;;12.63;100.00;102121.53;5027860;28;20042;-82
2022/11/10 12:24:59;;;;;;;15.75;4.45;;;;;;;12.66;100.00;102126.88;4986743;28;20356;-83
2022/11/10 12:27:57;;;;;;;12.60;4.38;;;;;;;12.69;100.00;102149.81;5020879;28;20640;-84
2022/11/10 12:30:57;;;;;;;18.63;4.40;;;;;;;12.71;100.00;102144.56;5015362;28;20049;-82
2022/11/10 12:33:54;;;;;;;17.25;4.03;;;;;;;12.72;100.00;102151.63;5023137;28;20043;-81
2022/11/10 12:36:43;;;;;;;12.63;3.60;;;;;;;12.74;100.00;102155.16;5030941;28;20053;-82
2022/11/10 12:39:42;;;;;;;15.48;4.05;;;;;;;12.76;100.00;102157.00;4989441;28;20079;-82
2022/11/10 12:42:30;;;;;;;20.27;4.13;;;;;;;12.74;100.00;102147.22;5027597;28;20088;-82
2022/11/10 12:45:22;;;;;;;21.65;4.40;;;;;;;12.71;100.00;102144.56;5004947;28;20522;-83
2022/11/10 12:48:15;;;;;;;19.92;4.00;;;;;;;12.64;100.00;102144.44;5023967;28;20042;-83
2022/11/10 12:51:20;;;;;;;13.98;3.97;;;;;;;12.59;100.00;102150.53;5032510;28;20121;-83
2022/11/10 12:54:12;;;;;;;18.15;4.32;;;;;;;12.54;100.00;102150.47;5036876;28;20037;-83
2022/11/10 12:57:25;;;;;;;19.45;3.92;;;;;;;12.51;100.00;102142.47;4994358;28;20025;-82
2022/11/10 13:00:19;;;;;;;19.70;4.72;;;;;;;12.48;100.00;102147.75;5010484;28;20045;-83
2022/11/10 13:03:26;;;;;;;21.08;4.47;;;;;;;12.48;100.00;102153.91;5024199;28;20045;-83
2022/11/10 13:06:23;;;;;;;13.27;3.50;;;;;;;12.46;100.00;102141.53;5020685;28;20041;-84
2022/11/10 13:09:31;;;;;;;15.10;3.05;;;;;;;12.43;100.00;102137.06;5023982;28;20499;-83
2022/11/10 13:12:20;;;;;;;12.65;3.50;;;;;;;12.40;100.00;102154.63;4995990;28;20541;-83
2022/11/10 13:15:38;;;;;;;15.55;4.20;;;;;;;12.40;100.00;102144.97;5021210;28;20021;-83
2022/11/10 13:18:29;;;;;;;13.13;3.78;;;;;;;12.41;100.00;102143.22;5014974;28;20361;-82
2022/11/10 13:21:15;;;;;;;22.17;3.78;;;;;;;12.43;100.00;102129.13;5021794;28;20045;-83